sensor_id;sensor_type;location;lat;lon;timestamp;temperature;humidity
12839;DHT22;6486;51.034;5.262;2023-07-29T00:01:50;21.90;80.40
12839;DHT22;6486;51.034;5.262;2023-07-29T00:04:16;21.90;80.40
12839;DHT22;6486;51.034;5.262;2023-07-29T00:06:42;21.90;80.40
12839;DHT22;6486;51.034;5.262;2023-07-29T00:09:07;21.90;80.50
12839;DHT22;6486;51.034;5.262;2023-07-29T00:11:33;21.90;80.50
12839;DHT22;6486;51.034;5.262;2023-07-29T00:14:02;21.90;80.70
12839;DHT22;6486;51.034;5.262;2023-07-29T00:16:28;21.80;80.80
12839;DHT22;6486;51.034;5.262;2023-07-29T00:18:54;21.80;81.10
12839;DHT22;6486;51.034;5.262;2023-07-29T00:21:19;21.80;81.20
12839;DHT22;6486;51.034;5.262;2023-07-29T00:23:45;21.80;81.40
12839;DHT22;6486;51.034;5.262;2023-07-29T00:26:11;21.80;81.40
12839;DHT22;6486;51.034;5.262;2023-07-29T00:28:36;21.80;81.40
12839;DHT22;6486;51.034;5.262;2023-07-29T00:31:02;21.80;81.50
12839;DHT22;6486;51.034;5.262;2023-07-29T00:33:28;21.80;81.50
12839;DHT22;6486;51.034;5.262;2023-07-29T00:35:53;21.80;81.50
12839;DHT22;6486;51.034;5.262;2023-07-29T00:38:19;21.80;81.50
12839;DHT22;6486;51.034;5.262;2023-07-29T00:40:45;21.80;81.50
12839;DHT22;6486;51.034;5.262;2023-07-29T00:43:10;21.80;81.60
12839;DHT22;6486;51.034;5.262;2023-07-29T00:45:36;21.90;81.70
12839;DHT22;6486;51.034;5.262;2023-07-29T00:48:02;21.90;81.70
12839;DHT22;6486;51.034;5.262;2023-07-29T00:50:29;21.90;81.70
12839;DHT22;6486;51.034;5.262;2023-07-29T00:52:56;21.90;81.70
12839;DHT22;6486;51.034;5.262;2023-07-29T00:55:22;21.90;81.80
12839;DHT22;6486;51.034;5.262;2023-07-29T00:57:48;21.90;81.70
12839;DHT22;6486;51.034;5.262;2023-07-29T01:00:17;21.90;81.80
12839;DHT22;6486;51.034;5.262;2023-07-29T01:02:43;21.90;81.90
12839;DHT22;6486;51.034;5.262;2023-07-29T01:05:12;21.90;81.90
12839;DHT22;6486;51.034;5.262;2023-07-29T01:07:56;21.90;82.00
12839;DHT22;6486;51.034;5.262;2023-07-29T01:13:53;21.90;82.10
12839;DHT22;6486;51.034;5.262;2023-07-29T01:16:17;21.80;82.10
12839;DHT22;6486;51.034;5.262;2023-07-29T01:18:47;21.80;82.10
12839;DHT22;6486;51.034;5.262;2023-07-29T01:21:14;21.80;82.20
12839;DHT22;6486;51.034;5.262;2023-07-29T01:23:41;21.80;82.40
12839;DHT22;6486;51.034;5.262;2023-07-29T01:26:06;21.70;82.30
12839;DHT22;6486;51.034;5.262;2023-07-29T01:28:32;21.70;82.40
12839;DHT22;6486;51.034;5.262;2023-07-29T01:31:16;21.70;82.40
12839;DHT22;6486;51.034;5.262;2023-07-29T01:33:52;21.70;82.40
12839;DHT22;6486;51.034;5.262;2023-07-29T01:36:21;21.70;82.40
12839;DHT22;6486;51.034;5.262;2023-07-29T01:38:49;21.70;82.50
12839;DHT22;6486;51.034;5.262;2023-07-29T01:41:17;21.70;82.60
12839;DHT22;6486;51.034;5.262;2023-07-29T01:43:43;21.60;82.50
12839;DHT22;6486;51.034;5.262;2023-07-29T01:46:10;21.60;82.80
12839;DHT22;6486;51.034;5.262;2023-07-29T01:48:39;21.50;82.90
12839;DHT22;6486;51.034;5.262;2023-07-29T01:51:06;21.50;83.20
12839;DHT22;6486;51.034;5.262;2023-07-29T01:53:32;21.40;83.20
12839;DHT22;6486;51.034;5.262;2023-07-29T01:55:58;21.30;83.30
12839;DHT22;6486;51.034;5.262;2023-07-29T01:58:24;21.20;83.30
12839;DHT22;6486;51.034;5.262;2023-07-29T02:00:49;21.20;83.30
12839;DHT22;6486;51.034;5.262;2023-07-29T02:03:15;21.20;83.20
12839;DHT22;6486;51.034;5.262;2023-07-29T02:05:40;21.10;83.10
12839;DHT22;6486;51.034;5.262;2023-07-29T02:08:09;21.10;83.00
12839;DHT22;6486;51.034;5.262;2023-07-29T02:10:35;21.10;82.80
12839;DHT22;6486;51.034;5.262;2023-07-29T02:13:00;21.00;82.70
12839;DHT22;6486;51.034;5.262;2023-07-29T02:15:26;21.00;82.60
12839;DHT22;6486;51.034;5.262;2023-07-29T02:17:51;21.00;82.50
12839;DHT22;6486;51.034;5.262;2023-07-29T02:20:17;20.90;82.30
12839;DHT22;6486;51.034;5.262;2023-07-29T02:22:43;20.90;82.20
12839;DHT22;6486;51.034;5.262;2023-07-29T02:25:08;20.90;82.00
12839;DHT22;6486;51.034;5.262;2023-07-29T02:27:35;20.90;81.80
12839;DHT22;6486;51.034;5.262;2023-07-29T02:30:01;20.80;81.80
12839;DHT22;6486;51.034;5.262;2023-07-29T02:32:27;20.80;81.80
12839;DHT22;6486;51.034;5.262;2023-07-29T02:34:53;20.80;81.80
12839;DHT22;6486;51.034;5.262;2023-07-29T02:37:18;20.70;81.50
12839;DHT22;6486;51.034;5.262;2023-07-29T02:39:45;20.60;81.50
12839;DHT22;6486;51.034;5.262;2023-07-29T02:42:10;20.60;81.50
12839;DHT22;6486;51.034;5.262;2023-07-29T02:44:36;20.50;81.30
12839;DHT22;6486;51.034;5.262;2023-07-29T02:47:02;20.50;81.40
12839;DHT22;6486;51.034;5.262;2023-07-29T02:49:27;20.50;81.20
12839;DHT22;6486;51.034;5.262;2023-07-29T02:51:53;20.40;80.80
12839;DHT22;6486;51.034;5.262;2023-07-29T02:54:18;20.40;80.90
12839;DHT22;6486;51.034;5.262;2023-07-29T02:56:44;20.40;80.90
12839;DHT22;6486;51.034;5.262;2023-07-29T02:59:10;20.30;80.70
12839;DHT22;6486;51.034;5.262;2023-07-29T03:01:35;20.40;80.60
12839;DHT22;6486;51.034;5.262;2023-07-29T03:04:01;20.30;80.50
12839;DHT22;6486;51.034;5.262;2023-07-29T03:06:27;20.30;80.40
12839;DHT22;6486;51.034;5.262;2023-07-29T03:08:52;20.30;80.50
12839;DHT22;6486;51.034;5.262;2023-07-29T03:11:18;20.20;80.20
12839;DHT22;6486;51.034;5.262;2023-07-29T03:13:43;20.20;80.10
12839;DHT22;6486;51.034;5.262;2023-07-29T03:16:11;20.20;80.10
12839;DHT22;6486;51.034;5.262;2023-07-29T03:18:37;20.20;80.10
12839;DHT22;6486;51.034;5.262;2023-07-29T03:21:03;20.10;79.90
12839;DHT22;6486;51.034;5.262;2023-07-29T03:23:30;20.10;79.80
12839;DHT22;6486;51.034;5.262;2023-07-29T03:26:00;20.10;79.60
12839;DHT22;6486;51.034;5.262;2023-07-29T03:28:27;20.10;79.50
12839;DHT22;6486;51.034;5.262;2023-07-29T03:30:54;20.10;79.50
12839;DHT22;6486;51.034;5.262;2023-07-29T03:33:20;20.00;79.40
12839;DHT22;6486;51.034;5.262;2023-07-29T03:35:45;20.00;79.40
12839;DHT22;6486;51.034;5.262;2023-07-29T03:38:12;20.00;79.40
12839;DHT22;6486;51.034;5.262;2023-07-29T03:40:41;20.00;79.40
12839;DHT22;6486;51.034;5.262;2023-07-29T03:43:07;20.00;79.30
12839;DHT22;6486;51.034;5.262;2023-07-29T03:45:34;20.00;79.20
12839;DHT22;6486;51.034;5.262;2023-07-29T03:47:59;20.00;79.10
12839;DHT22;6486;51.034;5.262;2023-07-29T03:50:25;20.00;79.10
12839;DHT22;6486;51.034;5.262;2023-07-29T03:52:51;20.10;79.10
12839;DHT22;6486;51.034;5.262;2023-07-29T03:55:17;20.10;79.10
12839;DHT22;6486;51.034;5.262;2023-07-29T03:57:43;20.00;78.90
12839;DHT22;6486;51.034;5.262;2023-07-29T04:00:08;20.10;78.90
12839;DHT22;6486;51.034;5.262;2023-07-29T04:02:34;20.10;78.90
12839;DHT22;6486;51.034;5.262;2023-07-29T04:05:03;20.00;78.80
12839;DHT22;6486;51.034;5.262;2023-07-29T04:07:30;20.00;78.80
12839;DHT22;6486;51.034;5.262;2023-07-29T04:09:55;20.00;78.80
12839;DHT22;6486;51.034;5.262;2023-07-29T04:12:22;19.90;78.70
12839;DHT22;6486;51.034;5.262;2023-07-29T04:14:48;19.90;78.80
12839;DHT22;6486;51.034;5.262;2023-07-29T04:17:13;19.90;78.80
12839;DHT22;6486;51.034;5.262;2023-07-29T04:19:39;19.90;78.80
12839;DHT22;6486;51.034;5.262;2023-07-29T04:22:05;19.90;78.90
12839;DHT22;6486;51.034;5.262;2023-07-29T04:24:30;19.80;78.90
12839;DHT22;6486;51.034;5.262;2023-07-29T04:26:56;19.80;78.90
12839;DHT22;6486;51.034;5.262;2023-07-29T04:29:21;19.80;79.10
12839;DHT22;6486;51.034;5.262;2023-07-29T04:31:51;19.80;79.20
12839;DHT22;6486;51.034;5.262;2023-07-29T04:34:18;19.70;79.20
12839;DHT22;6486;51.034;5.262;2023-07-29T04:36:45;19.70;79.40
12839;DHT22;6486;51.034;5.262;2023-07-29T04:39:10;19.70;79.50
12839;DHT22;6486;51.034;5.262;2023-07-29T04:41:36;19.70;79.50
12839;DHT22;6486;51.034;5.262;2023-07-29T04:44:01;19.70;79.50
12839;DHT22;6486;51.034;5.262;2023-07-29T04:46:27;19.70;79.60
12839;DHT22;6486;51.034;5.262;2023-07-29T04:48:53;19.70;79.70
12839;DHT22;6486;51.034;5.262;2023-07-29T04:51:18;19.70;79.80
12839;DHT22;6486;51.034;5.262;2023-07-29T04:53:44;19.70;79.70
12839;DHT22;6486;51.034;5.262;2023-07-29T04:56:09;19.70;79.60
12839;DHT22;6486;51.034;5.262;2023-07-29T04:58:35;19.70;79.70
12839;DHT22;6486;51.034;5.262;2023-07-29T05:01:04;19.70;79.70
12839;DHT22;6486;51.034;5.262;2023-07-29T05:03:30;19.70;79.90
12839;DHT22;6486;51.034;5.262;2023-07-29T05:05:56;19.70;79.90
12839;DHT22;6486;51.034;5.262;2023-07-29T05:08:22;19.70;80.00
12839;DHT22;6486;51.034;5.262;2023-07-29T05:10:51;19.70;80.00
12839;DHT22;6486;51.034;5.262;2023-07-29T05:13:18;19.70;80.10
12839;DHT22;6486;51.034;5.262;2023-07-29T05:15:43;19.70;80.30
12839;DHT22;6486;51.034;5.262;2023-07-29T05:18:09;19.60;80.30
12839;DHT22;6486;51.034;5.262;2023-07-29T05:20:35;19.60;80.20
12839;DHT22;6486;51.034;5.262;2023-07-29T05:23:00;19.70;80.30
12839;DHT22;6486;51.034;5.262;2023-07-29T05:25:26;19.70;80.30
12839;DHT22;6486;51.034;5.262;2023-07-29T05:27:52;19.60;80.10
12839;DHT22;6486;51.034;5.262;2023-07-29T05:30:18;19.60;80.10
12839;DHT22;6486;51.034;5.262;2023-07-29T05:32:43;19.60;80.10
12839;DHT22;6486;51.034;5.262;2023-07-29T05:35:09;19.70;80.30
12839;DHT22;6486;51.034;5.262;2023-07-29T05:37:37;19.70;80.10
12839;DHT22;6486;51.034;5.262;2023-07-29T05:40:03;19.70;80.00
12839;DHT22;6486;51.034;5.262;2023-07-29T05:42:29;19.80;80.00
12839;DHT22;6486;51.034;5.262;2023-07-29T05:44:55;19.80;79.90
12839;DHT22;6486;51.034;5.262;2023-07-29T05:47:20;19.80;79.80
12839;DHT22;6486;51.034;5.262;2023-07-29T05:49:46;19.90;79.70
12839;DHT22;6486;51.034;5.262;2023-07-29T05:52:11;19.90;79.70
12839;DHT22;6486;51.034;5.262;2023-07-29T05:54:37;19.90;79.70
12839;DHT22;6486;51.034;5.262;2023-07-29T05:57:03;20.00;79.50
12839;DHT22;6486;51.034;5.262;2023-07-29T05:59:28;20.00;79.30
12839;DHT22;6486;51.034;5.262;2023-07-29T06:01:55;20.10;79.40
12839;DHT22;6486;51.034;5.262;2023-07-29T06:04:20;20.10;79.20
12839;DHT22;6486;51.034;5.262;2023-07-29T06:06:46;20.20;79.10
12839;DHT22;6486;51.034;5.262;2023-07-29T06:09:11;20.20;78.90
12839;DHT22;6486;51.034;5.262;2023-07-29T06:11:37;20.30;78.70
12839;DHT22;6486;51.034;5.262;2023-07-29T06:14:02;20.40;78.50
12839;DHT22;6486;51.034;5.262;2023-07-29T06:16:28;20.40;78.40
12839;DHT22;6486;51.034;5.262;2023-07-29T06:18:54;20.50;78.10
12839;DHT22;6486;51.034;5.262;2023-07-29T06:21:19;20.60;77.80
12839;DHT22;6486;51.034;5.262;2023-07-29T06:23:46;20.70;77.40
12839;DHT22;6486;51.034;5.262;2023-07-29T06:26:11;20.80;77.20
12839;DHT22;6486;51.034;5.262;2023-07-29T06:28:37;20.90;77.00
12839;DHT22;6486;51.034;5.262;2023-07-29T06:31:03;21.00;76.60
12839;DHT22;6486;51.034;5.262;2023-07-29T06:33:28;21.00;76.30
12839;DHT22;6486;51.034;5.262;2023-07-29T06:35:54;21.10;75.70
12839;DHT22;6486;51.034;5.262;2023-07-29T06:38:19;21.10;75.60
12839;DHT22;6486;51.034;5.262;2023-07-29T06:40:48;21.20;75.60
12839;DHT22;6486;51.034;5.262;2023-07-29T06:43:13;21.20;75.20
12839;DHT22;6486;51.034;5.262;2023-07-29T06:45:39;21.20;75.00
12839;DHT22;6486;51.034;5.262;2023-07-29T06:48:05;21.10;74.90
12839;DHT22;6486;51.034;5.262;2023-07-29T06:50:30;21.20;74.50
12839;DHT22;6486;51.034;5.262;2023-07-29T06:52:56;21.30;74.30
12839;DHT22;6486;51.034;5.262;2023-07-29T06:55:22;21.40;74.10
12839;DHT22;6486;51.034;5.262;2023-07-29T06:57:47;21.60;73.80
12839;DHT22;6486;51.034;5.262;2023-07-29T07:00:13;21.70;73.60
12839;DHT22;6486;51.034;5.262;2023-07-29T07:02:39;21.80;73.50
12839;DHT22;6486;51.034;5.262;2023-07-29T07:05:04;21.90;73.40
12839;DHT22;6486;51.034;5.262;2023-07-29T07:07:30;22.10;73.00
12839;DHT22;6486;51.034;5.262;2023-07-29T07:09:56;22.20;72.90
12839;DHT22;6486;51.034;5.262;2023-07-29T07:12:22;22.10;72.70
12839;DHT22;6486;51.034;5.262;2023-07-29T07:14:47;22.00;72.10
12839;DHT22;6486;51.034;5.262;2023-07-29T07:17:13;22.00;72.40
12839;DHT22;6486;51.034;5.262;2023-07-29T07:19:39;22.00;72.50
12839;DHT22;6486;51.034;5.262;2023-07-29T07:22:05;22.20;72.20
12839;DHT22;6486;51.034;5.262;2023-07-29T07:24:30;22.40;71.50
12839;DHT22;6486;51.034;5.262;2023-07-29T07:26:56;22.40;71.00
12839;DHT22;6486;51.034;5.262;2023-07-29T07:29:22;22.40;71.00
12839;DHT22;6486;51.034;5.262;2023-07-29T07:31:52;22.30;70.60
12839;DHT22;6486;51.034;5.262;2023-07-29T07:34:19;22.20;70.60
12839;DHT22;6486;51.034;5.262;2023-07-29T07:36:45;22.20;71.00
12839;DHT22;6486;51.034;5.262;2023-07-29T07:39:10;22.20;70.70
12839;DHT22;6486;51.034;5.262;2023-07-29T07:41:36;22.30;70.80
12839;DHT22;6486;51.034;5.262;2023-07-29T07:44:02;22.30;71.00
12839;DHT22;6486;51.034;5.262;2023-07-29T07:46:28;22.40;70.90
12839;DHT22;6486;51.034;5.262;2023-07-29T07:48:54;22.40;70.50
12839;DHT22;6486;51.034;5.262;2023-07-29T07:51:20;22.40;70.40
12839;DHT22;6486;51.034;5.262;2023-07-29T07:53:45;22.30;70.50
12839;DHT22;6486;51.034;5.262;2023-07-29T07:56:11;22.40;70.70
12839;DHT22;6486;51.034;5.262;2023-07-29T07:58:37;22.30;70.30
12839;DHT22;6486;51.034;5.262;2023-07-29T08:01:07;22.20;69.80
12839;DHT22;6486;51.034;5.262;2023-07-29T08:03:33;22.20;70.30
12839;DHT22;6486;51.034;5.262;2023-07-29T08:05:59;22.10;70.30
12839;DHT22;6486;51.034;5.262;2023-07-29T08:08:28;22.10;70.40
12839;DHT22;6486;51.034;5.262;2023-07-29T08:10:54;22.10;70.40
12839;DHT22;6486;51.034;5.262;2023-07-29T08:13:20;22.10;70.80
12839;DHT22;6486;51.034;5.262;2023-07-29T08:15:50;22.20;70.30
12839;DHT22;6486;51.034;5.262;2023-07-29T08:18:17;22.20;70.00
12839;DHT22;6486;51.034;5.262;2023-07-29T08:20:53;22.20;69.70
12839;DHT22;6486;51.034;5.262;2023-07-29T08:23:19;22.20;69.70
12839;DHT22;6486;51.034;5.262;2023-07-29T08:25:45;22.20;69.60
12839;DHT22;6486;51.034;5.262;2023-07-29T08:28:15;22.30;69.80
12839;DHT22;6486;51.034;5.262;2023-07-29T08:30:40;22.40;69.90
12839;DHT22;6486;51.034;5.262;2023-07-29T08:33:06;22.50;69.80
12839;DHT22;6486;51.034;5.262;2023-07-29T08:35:31;22.50;69.60
12839;DHT22;6486;51.034;5.262;2023-07-29T08:37:57;22.60;69.10
12839;DHT22;6486;51.034;5.262;2023-07-29T08:40:27;22.70;69.20
12839;DHT22;6486;51.034;5.262;2023-07-29T08:42:57;22.80;69.20
12839;DHT22;6486;51.034;5.262;2023-07-29T08:45:24;22.80;68.70
12839;DHT22;6486;51.034;5.262;2023-07-29T08:47:53;22.90;68.90
12839;DHT22;6486;51.034;5.262;2023-07-29T08:50:23;23.00;68.90
12839;DHT22;6486;51.034;5.262;2023-07-29T08:52:50;23.10;68.80
12839;DHT22;6486;51.034;5.262;2023-07-29T08:55:18;23.30;68.70
12839;DHT22;6486;51.034;5.262;2023-07-29T08:57:43;23.50;67.70
12839;DHT22;6486;51.034;5.262;2023-07-29T09:00:10;23.60;67.20
12839;DHT22;6486;51.034;5.262;2023-07-29T09:02:36;23.60;67.10
12839;DHT22;6486;51.034;5.262;2023-07-29T09:05:02;23.60;66.80
12839;DHT22;6486;51.034;5.262;2023-07-29T09:07:29;23.50;66.50
12839;DHT22;6486;51.034;5.262;2023-07-29T09:09:54;23.50;66.30
12839;DHT22;6486;51.034;5.262;2023-07-29T09:12:20;23.40;65.90
12839;DHT22;6486;51.034;5.262;2023-07-29T09:14:46;23.50;66.40
12839;DHT22;6486;51.034;5.262;2023-07-29T09:17:12;23.70;66.60
12839;DHT22;6486;51.034;5.262;2023-07-29T09:19:38;24.10;66.40
12839;DHT22;6486;51.034;5.262;2023-07-29T09:22:03;24.30;64.90
12839;DHT22;6486;51.034;5.262;2023-07-29T09:24:29;24.30;64.80
12839;DHT22;6486;51.034;5.262;2023-07-29T09:26:57;24.30;65.70
12839;DHT22;6486;51.034;5.262;2023-07-29T09:29:23;24.10;64.90
12839;DHT22;6486;51.034;5.262;2023-07-29T09:31:49;24.00;65.50
12839;DHT22;6486;51.034;5.262;2023-07-29T09:34:15;24.10;65.70
12839;DHT22;6486;51.034;5.262;2023-07-29T09:36:42;24.20;65.50
12839;DHT22;6486;51.034;5.262;2023-07-29T09:39:12;24.20;65.50
12839;DHT22;6486;51.034;5.262;2023-07-29T09:41:41;24.10;65.10
12839;DHT22;6486;51.034;5.262;2023-07-29T09:44:07;24.10;65.20
12839;DHT22;6486;51.034;5.262;2023-07-29T09:46:36;24.10;65.20
12839;DHT22;6486;51.034;5.262;2023-07-29T09:49:06;24.40;65.40
12839;DHT22;6486;51.034;5.262;2023-07-29T09:51:38;24.60;64.90
12839;DHT22;6486;51.034;5.262;2023-07-29T09:54:04;24.60;64.80
12839;DHT22;6486;51.034;5.262;2023-07-29T09:56:30;24.60;64.70
12839;DHT22;6486;51.034;5.262;2023-07-29T09:58:56;24.60;64.90
12839;DHT22;6486;51.034;5.262;2023-07-29T10:01:23;24.60;64.70
12839;DHT22;6486;51.034;5.262;2023-07-29T10:03:49;24.50;64.50
12839;DHT22;6486;51.034;5.262;2023-07-29T10:06:15;24.40;64.30
12839;DHT22;6486;51.034;5.262;2023-07-29T10:08:43;24.30;63.90
12839;DHT22;6486;51.034;5.262;2023-07-29T10:11:09;24.40;63.80
12839;DHT22;6486;51.034;5.262;2023-07-29T10:13:36;24.60;63.60
12839;DHT22;6486;51.034;5.262;2023-07-29T10:16:02;24.70;62.40
12839;DHT22;6486;51.034;5.262;2023-07-29T10:18:29;24.70;61.90
12839;DHT22;6486;51.034;5.262;2023-07-29T10:20:57;24.60;62.00
12839;DHT22;6486;51.034;5.262;2023-07-29T10:23:25;24.60;62.70
12839;DHT22;6486;51.034;5.262;2023-07-29T10:26:02;24.60;62.90
12839;DHT22;6486;51.034;5.262;2023-07-29T10:28:30;24.60;63.20
12839;DHT22;6486;51.034;5.262;2023-07-29T10:30:57;24.60;63.10
12839;DHT22;6486;51.034;5.262;2023-07-29T10:33:23;24.60;63.20
12839;DHT22;6486;51.034;5.262;2023-07-29T10:35:49;24.70;63.40
12839;DHT22;6486;51.034;5.262;2023-07-29T10:38:16;24.70;63.50
12839;DHT22;6486;51.034;5.262;2023-07-29T10:40:53;24.90;63.30
12839;DHT22;6486;51.034;5.262;2023-07-29T10:43:31;24.90;62.90
12839;DHT22;6486;51.034;5.262;2023-07-29T10:45:58;24.80;63.00
12839;DHT22;6486;51.034;5.262;2023-07-29T10:48:41;24.60;62.80
12839;DHT22;6486;51.034;5.262;2023-07-29T10:56:31;25.20;62.60
12839;DHT22;6486;51.034;5.262;2023-07-29T10:59:02;25.20;62.70
12839;DHT22;6486;51.034;5.262;2023-07-29T11:01:29;25.20;62.70
12839;DHT22;6486;51.034;5.262;2023-07-29T11:04:31;25.10;62.60
12839;DHT22;6486;51.034;5.262;2023-07-29T11:12:37;25.00;62.90
12839;DHT22;6486;51.034;5.262;2023-07-29T11:17:34;25.00;63.00
12839;DHT22;6486;51.034;5.262;2023-07-29T11:20:01;25.00;62.60
12839;DHT22;6486;51.034;5.262;2023-07-29T11:22:28;24.90;62.90
12839;DHT22;6486;51.034;5.262;2023-07-29T11:24:54;24.80;62.80
12839;DHT22;6486;51.034;5.262;2023-07-29T11:27:20;24.70;62.90
12839;DHT22;6486;51.034;5.262;2023-07-29T11:29:47;24.80;63.30
12839;DHT22;6486;51.034;5.262;2023-07-29T11:32:12;24.80;63.10
12839;DHT22;6486;51.034;5.262;2023-07-29T11:34:38;24.80;63.10
12839;DHT22;6486;51.034;5.262;2023-07-29T11:37:05;24.70;63.50
12839;DHT22;6486;51.034;5.262;2023-07-29T11:39:34;24.70;63.80
12839;DHT22;6486;51.034;5.262;2023-07-29T11:42:04;24.70;64.10
12839;DHT22;6486;51.034;5.262;2023-07-29T11:44:30;24.60;64.50
12839;DHT22;6486;51.034;5.262;2023-07-29T11:46:56;24.60;65.00
12839;DHT22;6486;51.034;5.262;2023-07-29T11:49:22;24.40;65.20
12839;DHT22;6486;51.034;5.262;2023-07-29T11:51:47;24.30;65.20
12839;DHT22;6486;51.034;5.262;2023-07-29T11:54:13;24.20;65.60
12839;DHT22;6486;51.034;5.262;2023-07-29T11:56:38;24.10;66.10
12839;DHT22;6486;51.034;5.262;2023-07-29T11:59:04;24.20;66.60
12839;DHT22;6486;51.034;5.262;2023-07-29T12:01:30;24.50;66.70
12839;DHT22;6486;51.034;5.262;2023-07-29T12:03:57;24.50;67.10
12839;DHT22;6486;51.034;5.262;2023-07-29T12:06:23;24.50;66.90
12839;DHT22;6486;51.034;5.262;2023-07-29T12:08:50;24.50;67.20
12839;DHT22;6486;51.034;5.262;2023-07-29T12:11:16;24.50;67.10
12839;DHT22;6486;51.034;5.262;2023-07-29T12:13:42;24.50;67.20
12839;DHT22;6486;51.034;5.262;2023-07-29T12:16:08;24.50;67.10
12839;DHT22;6486;51.034;5.262;2023-07-29T12:18:34;24.50;66.70
12839;DHT22;6486;51.034;5.262;2023-07-29T12:21:00;24.50;66.90
12839;DHT22;6486;51.034;5.262;2023-07-29T12:23:26;24.50;67.00
12839;DHT22;6486;51.034;5.262;2023-07-29T12:25:56;24.50;66.90
12839;DHT22;6486;51.034;5.262;2023-07-29T12:28:22;24.60;67.00
12839;DHT22;6486;51.034;5.262;2023-07-29T12:30:52;24.60;66.80
12839;DHT22;6486;51.034;5.262;2023-07-29T12:33:35;24.60;66.80
12839;DHT22;6486;51.034;5.262;2023-07-29T12:36:02;24.90;66.80
12839;DHT22;6486;51.034;5.262;2023-07-29T12:38:28;25.20;66.60
12839;DHT22;6486;51.034;5.262;2023-07-29T12:40:55;25.30;66.40
12839;DHT22;6486;51.034;5.262;2023-07-29T12:43:20;25.20;66.10
12839;DHT22;6486;51.034;5.262;2023-07-29T12:45:46;25.10;65.70
12839;DHT22;6486;51.034;5.262;2023-07-29T12:48:12;24.90;65.90
12839;DHT22;6486;51.034;5.262;2023-07-29T12:50:38;24.80;66.20
12839;DHT22;6486;51.034;5.262;2023-07-29T12:53:08;24.70;66.50
12839;DHT22;6486;51.034;5.262;2023-07-29T12:55:35;24.90;66.30
12839;DHT22;6486;51.034;5.262;2023-07-29T12:58:01;25.20;66.00
12839;DHT22;6486;51.034;5.262;2023-07-29T13:00:27;25.50;65.20
12839;DHT22;6486;51.034;5.262;2023-07-29T13:02:53;25.70;64.40
12839;DHT22;6486;51.034;5.262;2023-07-29T13:05:19;25.80;64.40
12839;DHT22;6486;51.034;5.262;2023-07-29T13:07:45;25.80;64.60
12839;DHT22;6486;51.034;5.262;2023-07-29T13:10:11;25.60;64.60
12839;DHT22;6486;51.034;5.262;2023-07-29T13:12:37;25.50;64.90
12839;DHT22;6486;51.034;5.262;2023-07-29T13:15:03;25.20;65.10
12839;DHT22;6486;51.034;5.262;2023-07-29T13:17:29;25.00;65.60
12839;DHT22;6486;51.034;5.262;2023-07-29T13:19:54;24.80;66.20
12839;DHT22;6486;51.034;5.262;2023-07-29T13:22:20;24.60;66.90
12839;DHT22;6486;51.034;5.262;2023-07-29T13:24:46;24.40;67.50
12839;DHT22;6486;51.034;5.262;2023-07-29T13:27:12;24.10;68.10
12839;DHT22;6486;51.034;5.262;2023-07-29T13:29:39;23.90;68.70
12839;DHT22;6486;51.034;5.262;2023-07-29T13:32:05;23.70;69.30
12839;DHT22;6486;51.034;5.262;2023-07-29T13:34:31;23.70;69.80
12839;DHT22;6486;51.034;5.262;2023-07-29T13:36:57;23.60;70.10
12839;DHT22;6486;51.034;5.262;2023-07-29T13:39:23;23.60;70.50
12839;DHT22;6486;51.034;5.262;2023-07-29T13:41:48;23.60;70.80
12839;DHT22;6486;51.034;5.262;2023-07-29T13:44:14;23.70;71.00
12839;DHT22;6486;51.034;5.262;2023-07-29T13:46:39;23.90;71.20
12839;DHT22;6486;51.034;5.262;2023-07-29T13:49:05;24.20;71.30
12839;DHT22;6486;51.034;5.262;2023-07-29T13:51:30;24.60;71.40
12839;DHT22;6486;51.034;5.262;2023-07-29T13:53:56;24.80;71.20
12839;DHT22;6486;51.034;5.262;2023-07-29T13:56:22;25.10;71.30
12839;DHT22;6486;51.034;5.262;2023-07-29T13:58:48;25.30;71.20
12839;DHT22;6486;51.034;5.262;2023-07-29T14:01:13;25.40;70.90
12839;DHT22;6486;51.034;5.262;2023-07-29T14:03:39;25.50;71.00
12839;DHT22;6486;51.034;5.262;2023-07-29T14:06:04;25.60;70.90
12839;DHT22;6486;51.034;5.262;2023-07-29T14:08:30;25.80;70.60
12839;DHT22;6486;51.034;5.262;2023-07-29T14:10:56;25.80;70.30
12839;DHT22;6486;51.034;5.262;2023-07-29T14:13:21;26.00;70.50
12839;DHT22;6486;51.034;5.262;2023-07-29T14:15:47;26.10;70.50
12839;DHT22;6486;51.034;5.262;2023-07-29T14:18:13;26.30;70.30
12839;DHT22;6486;51.034;5.262;2023-07-29T14:20:38;26.40;69.70
12839;DHT22;6486;51.034;5.262;2023-07-29T14:23:04;26.60;69.60
12839;DHT22;6486;51.034;5.262;2023-07-29T14:25:30;26.80;69.50
12839;DHT22;6486;51.034;5.262;2023-07-29T14:27:55;26.90;69.00
12839;DHT22;6486;51.034;5.262;2023-07-29T14:30:21;27.00;68.90
12839;DHT22;6486;51.034;5.262;2023-07-29T14:32:46;27.20;69.50
12839;DHT22;6486;51.034;5.262;2023-07-29T14:35:12;27.30;67.30
12839;DHT22;6486;51.034;5.262;2023-07-29T14:37:38;27.40;67.50
12839;DHT22;6486;51.034;5.262;2023-07-29T14:40:04;27.30;67.20
12839;DHT22;6486;51.034;5.262;2023-07-29T14:42:30;27.30;66.00
12839;DHT22;6486;51.034;5.262;2023-07-29T14:44:56;26.90;65.90
12839;DHT22;6486;51.034;5.262;2023-07-29T14:47:21;26.60;65.90
12839;DHT22;6486;51.034;5.262;2023-07-29T14:49:47;26.40;66.30
12839;DHT22;6486;51.034;5.262;2023-07-29T14:52:13;26.20;66.40
12839;DHT22;6486;51.034;5.262;2023-07-29T14:54:38;26.10;66.30
12839;DHT22;6486;51.034;5.262;2023-07-29T14:57:06;25.90;66.50
12839;DHT22;6486;51.034;5.262;2023-07-29T14:59:32;25.80;66.80
12839;DHT22;6486;51.034;5.262;2023-07-29T15:01:57;25.90;67.10
12839;DHT22;6486;51.034;5.262;2023-07-29T15:04:23;25.90;67.20
12839;DHT22;6486;51.034;5.262;2023-07-29T15:06:49;25.80;67.40
12839;DHT22;6486;51.034;5.262;2023-07-29T15:09:15;25.70;67.50
12839;DHT22;6486;51.034;5.262;2023-07-29T15:11:40;25.60;67.50
12839;DHT22;6486;51.034;5.262;2023-07-29T15:14:06;25.50;67.10
12839;DHT22;6486;51.034;5.262;2023-07-29T15:16:32;25.40;67.60
12839;DHT22;6486;51.034;5.262;2023-07-29T15:19:01;25.30;68.00
12839;DHT22;6486;51.034;5.262;2023-07-29T15:21:27;25.30;68.40
12839;DHT22;6486;51.034;5.262;2023-07-29T15:23:52;25.70;68.50
12839;DHT22;6486;51.034;5.262;2023-07-29T15:26:18;26.00;68.80
12839;DHT22;6486;51.034;5.262;2023-07-29T15:28:44;26.30;67.50
12839;DHT22;6486;51.034;5.262;2023-07-29T15:31:09;26.30;67.50
12839;DHT22;6486;51.034;5.262;2023-07-29T15:33:37;26.10;66.50
12839;DHT22;6486;51.034;5.262;2023-07-29T15:36:03;26.00;66.90
12839;DHT22;6486;51.034;5.262;2023-07-29T15:38:28;25.80;67.30
12839;DHT22;6486;51.034;5.262;2023-07-29T15:40:54;25.80;67.60
12839;DHT22;6486;51.034;5.262;2023-07-29T15:43:20;25.70;67.50
12839;DHT22;6486;51.034;5.262;2023-07-29T15:45:45;25.80;67.40
12839;DHT22;6486;51.034;5.262;2023-07-29T15:48:11;25.90;67.80
12839;DHT22;6486;51.034;5.262;2023-07-29T15:50:37;26.10;67.50
12839;DHT22;6486;51.034;5.262;2023-07-29T15:53:02;26.40;67.30
12839;DHT22;6486;51.034;5.262;2023-07-29T15:55:29;26.50;67.20
12839;DHT22;6486;51.034;5.262;2023-07-29T15:57:54;26.50;65.70